Tuesday, September 30, 2014, 11:59 PM EDT
Back to Local

KMPO, Mt Pocono Pocono Mountains

Location: Pocono Summit, PA, United States Lat: 41.133
Local Time: 11:59 PM EDT ( 3:59 GMT) Lon: -75.383
Time Zone: US/Eastern Elev: 1915 ft

Show me the last for .
Show Decoded

2014-09-30 23:12 METAR KMPO 010312Z AUTO 11005KT 6SM BR SCT006 BKN044 14/13 A3001 RMK AO2
                 T01440128 TSNO =
2014-09-30 22:53 METAR KMPO 010253Z AUTO 15005KT 6SM BR OVC006 15/13 A3001 RMK AO2 SLP158
                 T01500133 52005 TSNO =
2014-09-30 21:53 METAR KMPO 010153Z AUTO 11005KT 8SM BKN008 OVC110 15/13 A3000 RMK AO2 SLP156
                 T01500133 TSNO =
2014-09-30 21:43 METAR KMPO 010143Z AUTO 15003KT 8SM SCT008 OVC110 15/13 A3000 RMK AO2 T01500133
                 TSNO =
2014-09-30 20:53 METAR KMPO 010053Z AUTO 13003KT 9SM OVC110 16/13 A2999 RMK AO2 SLP154 T01560128
                 TSNO =
2014-09-30 19:53 METAR KMPO 302353Z AUTO 12005KT 10SM FEW020 SCT100 16/13 A2998 RMK AO2 SLP150
                 T01610128 10217 20161 53016 TSNO =
2014-09-30 18:53 METAR KMPO 302253Z AUTO 14009KT 10SM CLR 18/12 A2996 RMK AO2 SLP142 T01780117
                 TSNO =
2014-09-30 17:53 METAR KMPO 302153Z AUTO 15005KT 10SM CLR 19/10 A2994 RMK AO2 SLP135 T01890100
                 TSNO =
2014-09-30 17:26 METAR KMPO 302126Z AUTO 16009KT 10SM FEW001 BKN043 BKN055 21/10 A2993 RMK AO2
                 T02060100 TSNO =
2014-09-30 16:53 METAR KMPO 302053Z AUTO 12006KT 10SM BKN042 OVC050 21/11 A2993 RMK AO2 SLP130
                 T02110106 56008 TSNO =
2014-09-30 15:53 METAR KMPO 301953Z AUTO 15009KT 10SM FEW120 22/11 A2994 RMK AO2 SLP131 T02170111
                 TSNO =
2014-09-30 14:53 METAR KMPO 301853Z AUTO 14007KT 10SM FEW037 SCT050 SCT110 21/11 A2995 RMK AO2
                 SLP135 T02060111 TSNO =
2014-09-30 13:53 METAR KMPO 301753Z AUTO 18006KT 10SM BKN110 21/12 A2996 RMK AO2 SLP138 T02110117
                 10211 20139 58008 TSNO =
2014-09-30 13:12 METAR KMPO 301712Z AUTO 15007KT 120V190 10SM SCT027 BKN110 21/12 A2997 RMK AO2
                 T02060117 TSNO =
2014-09-30 13:05 METAR KMPO 301705Z AUTO 17008KT 10SM BKN027 BKN110 20/12 A2997 RMK AO2 T02000117
                 TSNO =
2014-09-30 12:53 METAR KMPO 301653Z AUTO 13010KT 10SM SCT027 BKN110 19/12 A2997 RMK AO2 SLP144
                 T01940122 TSNO =
2014-09-30 11:53 METAR KMPO 301553Z AUTO 18006KT 10SM CLR 19/13 A2997 RMK AO2 SLP144 T01940128
                 TSNO =
2014-09-30 10:53 METAR KMPO 301453Z AUTO 16007KT 7SM FEW014 18/13 A2998 RMK AO2 SLP147 T01780133
                 58001 TSNO =
2014-09-30 10:01 METAR KMPO 301401Z AUTO 15004KT 5SM HZ FEW008 17/13 A2999 RMK AO2 T01720133 TSNO
                 =
2014-09-30 09:53 METAR KMPO 301353Z AUTO 15006KT 5SM HZ BKN008 17/13 A2999 RMK AO2 CIG 005V011
                 SLP152 T01670133 TSNO =
2014-09-30 09:22 METAR KMPO 301322Z AUTO 16005KT 3SM BR OVC005 16/14 A2999 RMK AO2 CIG 004V009
                 T01610139 TSNO =
2014-09-30 09:07 METAR KMPO 301307Z AUTO VRB03KT 2 1/2SM BR OVC006 15/14 A2999 RMK AO2 CIG
                 003V009 T01500139 TSNO =
2014-09-30 08:53 METAR KMPO 301253Z AUTO 22003KT 2SM BR OVC004 15/14 A2999 RMK AO2 CIG 001V006
                 SLP151 T01500139 TSNO =
2014-09-30 08:38 METAR KMPO 301238Z AUTO 00000KT 1 1/4SM BR OVC002 15/14 A2998 RMK AO2 T01500139
                 TSNO =
2014-09-30 08:31 METAR KMPO 301231Z AUTO 19003KT 3/4SM BR OVC002 14/14 A2998 RMK AO2 T01440139
                 TSNO =
2014-09-30 07:53 METAR KMPO 301153Z AUTO 22004KT M1/4SM FG VV001 14/13 A2997 RMK AO2 SLP146
                 T01390133 10139 20106 53006 TSNO $ =
2014-09-30 06:53 METAR KMPO 301053Z AUTO 00000KT 1/4SM FG VV001 12/11 A2996 RMK AO2 SLP142
                 T01220111 TSNO $ =
2014-09-30 05:53 METAR KMPO 300953Z AUTO 00000KT M1/4SM FG VV001 11/11 A2995 RMK AO2 SLP138
                 T01110106 TSNO $ =
2014-09-30 05:13 METAR KMPO 300913Z AUTO 00000KT 1/4SM FG VV004 12/11 A2995 RMK AO2 T01170111
                 TSNO $ =
2014-09-30 05:08 METAR KMPO 300908Z AUTO 00000KT 1/2SM FG BKN005 OVC040 12/11 A2995 RMK AO2
                 T01220111 TSNO $ =
2014-09-30 05:01 METAR KMPO 300901Z AUTO 00000KT 1 3/4SM BR BKN009 BKN039 11/10 A2995 RMK AO2 VIS
                 1V4 T01110100 TSNO $ =
2014-09-30 04:56 METAR KMPO 300856Z AUTO 00000KT 1 1/2SM BR SCT016 BKN027 BKN039 11/11 A2995 RMK
                 AO2 T01110106 TSNO $ =
2014-09-30 04:53 METAR KMPO 300853Z AUTO 09003KT 2SM BR FEW021 SCT027 BKN039 12/11 A2995 RMK AO2
                 SLP137 T01220111 55003 TSNO $ =
2014-09-30 04:46 METAR KMPO 300846Z AUTO 00000KT 2 1/2SM BR SCT026 OVC039 12/11 A2995 RMK AO2
                 T01220106 TSNO $ =
2014-09-30 04:29 METAR KMPO 300829Z AUTO 10003KT 3SM BR OVC026 11/10 A2995 RMK AO2 T01110100 TSNO
                 $ =
2014-09-30 04:22 METAR KMPO 300822Z AUTO 00000KT 2SM BR BKN026 12/10 A2995 RMK AO2 T01170100 TSNO
                 $ =
2014-09-30 04:17 METAR KMPO 300817Z AUTO 00000KT 3/4SM BR BKN024 BKN030 12/11 A2995 RMK AO2
                 T01170106 TSNO $ =
2014-09-30 04:06 METAR KMPO 300806Z AUTO 00000KT 1 3/4SM BR BKN024 12/11 A2995 RMK AO2 T01170106
                 TSNO $ =
2014-09-30 03:57 METAR KMPO 300757Z AUTO 00000KT 2SM BR SCT017 11/10 A2994 RMK AO2 T01110100 TSNO
                 $ =
2014-09-30 03:49 METAR KMPO 300749Z AUTO 00000KT 1 1/4SM BR BKN021 11/10 A2994 RMK AO2 SLP135
                 T01060100 TSNO $ =
2014-09-30 03:48 METAR KMPO 300748Z AUTO 00000KT 1SM BR BKN021 11/10 A2994 RMK AO2 TSNO $ =
2014-09-30 03:34 METAR KMPO 300734Z AUTO 00000KT 1/4SM FG FEW018 BKN025 OVC030 12/11 A2995 RMK
                 AO2 T01170111 TSNO $ =
2014-09-30 03:28 METAR KMPO 300728Z AUTO 00000KT 1SM BR FEW018 BKN029 12/11 A2995 RMK AO2
                 T01170111 TSNO $ =
2014-09-30 03:18 METAR KMPO 300718Z AUTO 00000KT 1/2SM FG BKN027 12/11 A2995 RMK AO2 T01220111
                 TSNO $ =
2014-09-30 03:12 METAR KMPO 300712Z AUTO 00000KT 1/4SM FG SCT024 11/10 A2995 RMK AO2 T01110100
                 TSNO $ =
2014-09-30 03:05 METAR KMPO 300705Z AUTO 00000KT 1 1/4SM BR CLR 12/11 A2995 RMK AO2 T01220111
                 TSNO $ =
2014-09-30 02:53 METAR KMPO 300653Z AUTO 30003KT 2SM BR CLR 13/12 A2995 RMK AO2 SLP135 T01280117
                 TSNO $ =
2014-09-30 02:46 METAR KMPO 300646Z AUTO 29004KT 2SM BR CLR 13/12 A2995 RMK AO2 T01280117 TSNO $
                 =
2014-09-30 02:09 METAR KMPO 300609Z AUTO 00000KT 1 1/4SM BR CLR 12/12 A2996 RMK AO2 T01220117
                 TSNO $ =
2014-09-30 01:53 METAR KMPO 300553Z AUTO 00000KT 2 1/2SM BR CLR 13/12 A2996 RMK AO2 SLP138
                 T01330122 10161 20122 56006 TSNO $ =
2014-09-30 01:33 METAR KMPO 300533Z AUTO 00000KT 2 1/2SM BR CLR 13/12 A2996 RMK AO2 T01280117
                 TSNO $ =
2014-09-30 00:53 METAR KMPO 300453Z AUTO 29003KT 5SM BR CLR 13/11 A2996 RMK AO2 SLP139 T01280111
                 402220122 TSNO $ =

Support USWX by starting your Amazon purchase here.